sensor_id;sensor_type;location;lat;lon;timestamp;temperature;humidity
72202;SHT30;60105;54.956;73.412;2023-05-07T00:00:13;12.22;40.03
72202;SHT30;60105;54.956;73.412;2023-05-07T00:03:16;12.24;40.25
72202;SHT30;60105;54.956;73.412;2023-05-07T00:06:55;12.28;39.96
72202;SHT30;60105;54.956;73.412;2023-05-07T00:09:57;12.30;40.33
72202;SHT30;60105;54.956;73.412;2023-05-07T00:12:58;12.32;39.61
72202;SHT30;60105;54.956;73.412;2023-05-07T00:15:59;12.38;39.63
72202;SHT30;60105;54.956;73.412;2023-05-07T00:19:01;12.43;38.32
72202;SHT30;60105;54.956;73.412;2023-05-07T00:22:02;12.56;35.79
72202;SHT30;60105;54.956;73.412;2023-05-07T00:25:04;12.67;34.78
72202;SHT30;60105;54.956;73.412;2023-05-07T00:28:07;12.81;33.62
72202;SHT30;60105;54.956;73.412;2023-05-07T00:31:09;12.90;34.68
72202;SHT30;60105;54.956;73.412;2023-05-07T00:34:10;12.96;32.54
72202;SHT30;60105;54.956;73.412;2023-05-07T00:37:11;13.06;33.05
72202;SHT30;60105;54.956;73.412;2023-05-07T00:40:13;13.12;32.90
72202;SHT30;60105;54.956;73.412;2023-05-07T00:43:15;13.15;32.52
72202;SHT30;60105;54.956;73.412;2023-05-07T00:46:57;13.25;33.21
72202;SHT30;60105;54.956;73.412;2023-05-07T00:49:58;13.32;32.96
72202;SHT30;60105;54.956;73.412;2023-05-07T00:53:00;13.35;33.03
72202;SHT30;60105;54.956;73.412;2023-05-07T00:56:02;13.41;32.00
72202;SHT30;60105;54.956;73.412;2023-05-07T00:59:03;13.46;33.55
72202;SHT30;60105;54.956;73.412;2023-05-07T01:02:05;13.48;32.50
72202;SHT30;60105;54.956;73.412;2023-05-07T01:05:09;13.51;31.63
72202;SHT30;60105;54.956;73.412;2023-05-07T01:08:12;13.55;31.33
72202;SHT30;60105;54.956;73.412;2023-05-07T01:11:56;13.62;30.92
72202;SHT30;60105;54.956;73.412;2023-05-07T01:14:58;13.67;31.04
72202;SHT30;60105;54.956;73.412;2023-05-07T01:18:00;13.77;30.16
72202;SHT30;60105;54.956;73.412;2023-05-07T01:21:11;13.83;30.20
72202;SHT30;60105;54.956;73.412;2023-05-07T01:24:12;13.90;30.08
72202;SHT30;60105;54.956;73.412;2023-05-07T01:27:14;14.02;29.71
72202;SHT30;60105;54.956;73.412;2023-05-07T01:30:16;14.09;29.83
72202;SHT30;60105;54.956;73.412;2023-05-07T01:33:21;14.20;30.10
72202;SHT30;60105;54.956;73.412;2023-05-07T01:36:56;14.27;29.28
72202;SHT30;60105;54.956;73.412;2023-05-07T01:40:00;14.38;30.14
72202;SHT30;60105;54.956;73.412;2023-05-07T01:43:02;14.46;29.26
72202;SHT30;60105;54.956;73.412;2023-05-07T01:46:06;14.54;29.56
72202;SHT30;60105;54.956;73.412;2023-05-07T01:49:08;14.65;29.48
72202;SHT30;60105;54.956;73.412;2023-05-07T01:52:10;14.74;30.01
72202;SHT30;60105;54.956;73.412;2023-05-07T01:55:12;14.81;29.87
72202;SHT30;60105;54.956;73.412;2023-05-07T01:58:15;14.93;30.17
72202;SHT30;60105;54.956;73.412;2023-05-07T02:01:24;14.99;29.63
72202;SHT30;60105;54.956;73.412;2023-05-07T02:04:25;15.07;29.46
72202;SHT30;60105;54.956;73.412;2023-05-07T02:07:28;15.20;29.52
72202;SHT30;60105;54.956;73.412;2023-05-07T02:10:29;15.30;29.84
72202;SHT30;60105;54.956;73.412;2023-05-07T02:13:32;15.39;29.58
72202;SHT30;60105;54.956;73.412;2023-05-07T02:16:55;15.53;29.20
72202;SHT30;60105;54.956;73.412;2023-05-07T02:19:57;15.63;29.34
72202;SHT30;60105;54.956;73.412;2023-05-07T02:23:18;15.81;29.10
72202;SHT30;60105;54.956;73.412;2023-05-07T02:26:55;15.95;28.49
72202;SHT30;60105;54.956;73.412;2023-05-07T02:29:57;16.06;28.28
72202;SHT30;60105;54.956;73.412;2023-05-07T02:32:58;16.18;28.30
72202;SHT30;60105;54.956;73.412;2023-05-07T02:36:10;16.32;28.26
72202;SHT30;60105;54.956;73.412;2023-05-07T02:39:19;16.45;28.20
72202;SHT30;60105;54.956;73.412;2023-05-07T02:42:20;16.59;27.74
72202;SHT30;60105;54.956;73.412;2023-05-07T02:45:22;16.74;26.97
72202;SHT30;60105;54.956;73.412;2023-05-07T02:48:26;16.87;26.78
72202;SHT30;60105;54.956;73.412;2023-05-07T02:51:55;17.01;26.57
72202;SHT30;60105;54.956;73.412;2023-05-07T02:54:59;17.18;26.75
72202;SHT30;60105;54.956;73.412;2023-05-07T02:58:00;17.35;26.95
72202;SHT30;60105;54.956;73.412;2023-05-07T03:01:02;17.49;26.56
72202;SHT30;60105;54.956;73.412;2023-05-07T03:04:27;17.66;26.22
72202;SHT30;60105;54.956;73.412;2023-05-07T03:07:28;17.79;26.03
72202;SHT30;60105;54.956;73.412;2023-05-07T03:10:38;17.96;25.94
72202;SHT30;60105;54.956;73.412;2023-05-07T03:13:40;18.13;25.92
72202;SHT30;60105;54.956;73.412;2023-05-07T03:16:55;18.26;25.93
72202;SHT30;60105;54.956;73.412;2023-05-07T03:19:56;18.44;26.01
72202;SHT30;60105;54.956;73.412;2023-05-07T03:22:58;18.62;25.37
72202;SHT30;60105;54.956;73.412;2023-05-07T03:25:59;18.79;25.16
72202;SHT30;60105;54.956;73.412;2023-05-07T03:29:01;18.89;25.95
72202;SHT30;60105;54.956;73.412;2023-05-07T03:32:03;19.03;25.27
72202;SHT30;60105;54.956;73.412;2023-05-07T03:35:04;19.16;24.67
72202;SHT30;60105;54.956;73.412;2023-05-07T03:38:06;19.30;25.37
72202;SHT30;60105;54.956;73.412;2023-05-07T03:41:11;19.43;25.11
72202;SHT30;60105;54.956;73.412;2023-05-07T03:44:12;19.60;24.15
72202;SHT30;60105;54.956;73.412;2023-05-07T03:47:14;19.74;24.95
72202;SHT30;60105;54.956;73.412;2023-05-07T03:50:16;19.84;24.90
72202;SHT30;60105;54.956;73.412;2023-05-07T03:53:18;19.95;23.69
72202;SHT30;60105;54.956;73.412;2023-05-07T03:56:55;20.15;23.31
72202;SHT30;60105;54.956;73.412;2023-05-07T03:59:57;20.30;23.62
72202;SHT30;60105;54.956;73.412;2023-05-07T04:02:58;20.42;23.86
72202;SHT30;60105;54.956;73.412;2023-05-07T04:06:03;20.56;22.85
72202;SHT30;60105;54.956;73.412;2023-05-07T04:09:06;20.71;23.01
72202;SHT30;60105;54.956;73.412;2023-05-07T04:12:09;20.84;22.21
72202;SHT30;60105;54.956;73.412;2023-05-07T04:15:10;21.02;21.60
72202;SHT30;60105;54.956;73.412;2023-05-07T04:18:12;21.14;21.55
72202;SHT30;60105;54.956;73.412;2023-05-07T04:21:55;21.22;22.42
72202;SHT30;60105;54.956;73.412;2023-05-07T04:24:57;21.34;22.43
72202;SHT30;60105;54.956;73.412;2023-05-07T04:28:00;21.41;21.87
72202;SHT30;60105;54.956;73.412;2023-05-07T04:31:03;21.56;22.12
72202;SHT30;60105;54.956;73.412;2023-05-07T04:34:06;21.65;22.71
72202;SHT30;60105;54.956;73.412;2023-05-07T04:37:09;21.72;22.45
72202;SHT30;60105;54.956;73.412;2023-05-07T04:40:11;21.80;21.29
72202;SHT30;60105;54.956;73.412;2023-05-07T04:43:12;21.96;20.89
72202;SHT30;60105;54.956;73.412;2023-05-07T04:46:55;22.03;21.73
72202;SHT30;60105;54.956;73.412;2023-05-07T04:50:00;22.18;21.47
72202;SHT30;60105;54.956;73.412;2023-05-07T04:53:03;22.40;21.59
72202;SHT30;60105;54.956;73.412;2023-05-07T04:56:05;22.38;20.34
72202;SHT30;60105;54.956;73.412;2023-05-07T04:59:15;22.55;19.19
72202;SHT30;60105;54.956;73.412;2023-05-07T05:02:17;22.68;20.08
72202;SHT30;60105;54.956;73.412;2023-05-07T05:05:19;22.86;19.51
72202;SHT30;60105;54.956;73.412;2023-05-07T05:08:23;22.88;20.13
72202;SHT30;60105;54.956;73.412;2023-05-07T05:11:55;22.89;20.12
72202;SHT30;60105;54.956;73.412;2023-05-07T05:14:57;22.96;19.74
72202;SHT30;60105;54.956;73.412;2023-05-07T05:17:58;23.00;20.11
72202;SHT30;60105;54.956;73.412;2023-05-07T05:21:00;23.07;21.00
72202;SHT30;60105;54.956;73.412;2023-05-07T05:24:02;23.12;21.75
72202;SHT30;60105;54.956;73.412;2023-05-07T05:27:04;23.23;21.09
72202;SHT30;60105;54.956;73.412;2023-05-07T05:30:06;23.28;20.37
72202;SHT30;60105;54.956;73.412;2023-05-07T05:33:09;23.30;19.78
72202;SHT30;60105;54.956;73.412;2023-05-07T05:36:55;23.42;19.06
72202;SHT30;60105;54.956;73.412;2023-05-07T05:39:58;23.60;18.98
72202;SHT30;60105;54.956;73.412;2023-05-07T05:43:02;23.61;18.21
72202;SHT30;60105;54.956;73.412;2023-05-07T05:46:04;23.65;18.65
72202;SHT30;60105;54.956;73.412;2023-05-07T05:49:06;23.71;17.44
72202;SHT30;60105;54.956;73.412;2023-05-07T05:52:08;23.89;18.00
72202;SHT30;60105;54.956;73.412;2023-05-07T05:55:10;23.98;17.69
72202;SHT30;60105;54.956;73.412;2023-05-07T05:58:13;24.02;17.20
72202;SHT30;60105;54.956;73.412;2023-05-07T06:01:24;24.08;18.36
72202;SHT30;60105;54.956;73.412;2023-05-07T06:04:27;24.12;16.96
72202;SHT30;60105;54.956;73.412;2023-05-07T06:07:29;24.09;17.23
72202;SHT30;60105;54.956;73.412;2023-05-07T06:10:31;24.12;17.26
72202;SHT30;60105;54.956;73.412;2023-05-07T06:13:32;24.23;18.21
72202;SHT30;60105;54.956;73.412;2023-05-07T06:16:55;24.35;16.25
72202;SHT30;60105;54.956;73.412;2023-05-07T06:19:56;24.43;16.32
72202;SHT30;60105;54.956;73.412;2023-05-07T06:22:58;24.40;17.10
72202;SHT30;60105;54.956;73.412;2023-05-07T06:26:00;24.48;17.86
72202;SHT30;60105;54.956;73.412;2023-05-07T06:29:07;24.59;26.94
72202;SHT30;60105;54.956;73.412;2023-05-07T06:32:12;24.57;19.09
72202;SHT30;60105;54.956;73.412;2023-05-07T06:35:16;24.76;18.51
72202;SHT30;60105;54.956;73.412;2023-05-07T06:38:17;24.79;16.01
72202;SHT30;60105;54.956;73.412;2023-05-07T06:41:55;24.91;17.23
72202;SHT30;60105;54.956;73.412;2023-05-07T06:45:01;24.91;15.72
72202;SHT30;60105;54.956;73.412;2023-05-07T06:48:06;24.97;16.42
72202;SHT30;60105;54.956;73.412;2023-05-07T06:51:55;24.92;19.09
72202;SHT30;60105;54.956;73.412;2023-05-07T06:54:57;24.87;15.87
72202;SHT30;60105;54.956;73.412;2023-05-07T06:58:00;24.91;15.80
72202;SHT30;60105;54.956;73.412;2023-05-07T07:01:03;25.01;21.53
72202;SHT30;60105;54.956;73.412;2023-05-07T07:04:05;25.08;16.63
72202;SHT30;60105;54.956;73.412;2023-05-07T07:07:08;25.21;17.27
72202;SHT30;60105;54.956;73.412;2023-05-07T07:10:10;25.38;16.43
72202;SHT30;60105;54.956;73.412;2023-05-07T07:13:11;25.38;16.24
72202;SHT30;60105;54.956;73.412;2023-05-07T07:16:55;25.63;16.32
72202;SHT30;60105;54.956;73.412;2023-05-07T07:19:58;25.68;16.71
72202;SHT30;60105;54.956;73.412;2023-05-07T07:23:00;25.73;16.91
72202;SHT30;60105;54.956;73.412;2023-05-07T07:26:02;25.83;17.05
72202;SHT30;60105;54.956;73.412;2023-05-07T07:29:03;25.85;16.40
72202;SHT30;60105;54.956;73.412;2023-05-07T07:32:05;25.85;16.18
72202;SHT30;60105;54.956;73.412;2023-05-07T07:35:07;25.83;18.86
72202;SHT30;60105;54.956;73.412;2023-05-07T07:38:10;25.80;15.30
72202;SHT30;60105;54.956;73.412;2023-05-07T07:41:55;25.94;18.59
72202;SHT30;60105;54.956;73.412;2023-05-07T07:44:57;26.10;16.08
72202;SHT30;60105;54.956;73.412;2023-05-07T07:48:01;26.14;15.94
72202;SHT30;60105;54.956;73.412;2023-05-07T07:51:06;26.18;16.97
72202;SHT30;60105;54.956;73.412;2023-05-07T07:54:08;26.23;14.70
72202;SHT30;60105;54.956;73.412;2023-05-07T07:57:10;26.13;15.76
72202;SHT30;60105;54.956;73.412;2023-05-07T08:00:12;26.16;14.37
72202;SHT30;60105;54.956;73.412;2023-05-07T08:03:23;26.20;16.48
72202;SHT30;60105;54.956;73.412;2023-05-07T08:06:55;26.28;16.68
72202;SHT30;60105;54.956;73.412;2023-05-07T08:09:57;26.37;16.52
72202;SHT30;60105;54.956;73.412;2023-05-07T08:13:00;26.40;16.94
72202;SHT30;60105;54.956;73.412;2023-05-07T08:16:05;26.44;17.02
72202;SHT30;60105;54.956;73.412;2023-05-07T08:19:07;26.57;17.04
72202;SHT30;60105;54.956;73.412;2023-05-07T08:22:10;26.61;15.46
72202;SHT30;60105;54.956;73.412;2023-05-07T08:25:11;26.64;16.22
72202;SHT30;60105;54.956;73.412;2023-05-07T08:28:13;26.64;17.12
72202;SHT30;60105;54.956;73.412;2023-05-07T08:31:24;26.65;15.92
72202;SHT30;60105;54.956;73.412;2023-05-07T08:34:25;26.68;15.84
72202;SHT30;60105;54.956;73.412;2023-05-07T08:37:29;26.79;15.99
72202;SHT30;60105;54.956;73.412;2023-05-07T08:40:38;26.74;15.77
72202;SHT30;60105;54.956;73.412;2023-05-07T08:43:48;26.68;16.67
72202;SHT30;60105;54.956;73.412;2023-05-07T08:46:56;26.64;16.49
72202;SHT30;60105;54.956;73.412;2023-05-07T08:49:59;26.64;14.80
72202;SHT30;60105;54.956;73.412;2023-05-07T08:53:02;26.61;15.41
72202;SHT30;60105;54.956;73.412;2023-05-07T08:56:05;26.68;16.23
72202;SHT30;60105;54.956;73.412;2023-05-07T08:59:07;26.68;15.31
72202;SHT30;60105;54.956;73.412;2023-05-07T09:02:10;26.74;15.90
72202;SHT30;60105;54.956;73.412;2023-05-07T09:05:13;26.85;15.63
72202;SHT30;60105;54.956;73.412;2023-05-07T09:08:15;26.95;15.68
72202;SHT30;60105;54.956;73.412;2023-05-07T09:11:58;27.09;15.14
72202;SHT30;60105;54.956;73.412;2023-05-07T09:15:06;27.10;15.92
72202;SHT30;60105;54.956;73.412;2023-05-07T09:18:09;27.19;15.16
72202;SHT30;60105;54.956;73.412;2023-05-07T09:21:59;27.32;16.09
72202;SHT30;60105;54.956;73.412;2023-05-07T09:25:07;27.40;14.73
72202;SHT30;60105;54.956;73.412;2023-05-07T09:28:12;27.42;15.43
72202;SHT30;60105;54.956;73.412;2023-05-07T09:31:24;27.50;14.82
72202;SHT30;60105;54.956;73.412;2023-05-07T09:34:29;27.51;14.41
72202;SHT30;60105;54.956;73.412;2023-05-07T09:37:32;27.47;15.41
72202;SHT30;60105;54.956;73.412;2023-05-07T09:40:35;27.46;17.11
72202;SHT30;60105;54.956;73.412;2023-05-07T09:43:44;27.58;14.24
72202;SHT30;60105;54.956;73.412;2023-05-07T09:46:55;27.64;14.50
72202;SHT30;60105;54.956;73.412;2023-05-07T09:50:08;27.64;13.98
72202;SHT30;60105;54.956;73.412;2023-05-07T09:53:13;27.74;15.84
72202;SHT30;60105;54.956;73.412;2023-05-07T09:56:55;27.94;14.14
72202;SHT30;60105;54.956;73.412;2023-05-07T10:00:01;27.94;15.34
72202;SHT30;60105;54.956;73.412;2023-05-07T10:03:11;27.87;14.54
72202;SHT30;60105;54.956;73.412;2023-05-07T10:06:55;27.98;15.21
72202;SHT30;60105;54.956;73.412;2023-05-07T10:09:59;27.91;15.10
72202;SHT30;60105;54.956;73.412;2023-05-07T10:13:10;27.94;15.02
72202;SHT30;60105;54.956;73.412;2023-05-07T10:16:55;27.97;17.01
72202;SHT30;60105;54.956;73.412;2023-05-07T10:19:58;27.95;13.76
72202;SHT30;60105;54.956;73.412;2023-05-07T10:23:01;27.97;13.56
72202;SHT30;60105;54.956;73.412;2023-05-07T10:26:56;28.06;14.41
72202;SHT30;60105;54.956;73.412;2023-05-07T10:30:20;28.14;13.80
72202;SHT30;60105;54.956;73.412;2023-05-07T10:33:27;28.09;13.87
72202;SHT30;60105;54.956;73.412;2023-05-07T10:36:55;28.15;14.32
72202;SHT30;60105;54.956;73.412;2023-05-07T10:39:58;28.15;14.08
72202;SHT30;60105;54.956;73.412;2023-05-07T10:43:06;28.11;15.22
72202;SHT30;60105;54.956;73.412;2023-05-07T10:47:09;28.09;14.26
72202;SHT30;60105;54.956;73.412;2023-05-07T10:56:55;28.19;14.92
72202;SHT30;60105;54.956;73.412;2023-05-07T11:03:23;28.26;16.43
72202;SHT30;60105;54.956;73.412;2023-05-07T11:10:22;28.23;14.39
72202;SHT30;60105;54.956;73.412;2023-05-07T11:13:43;28.32;14.56
72202;SHT30;60105;54.956;73.412;2023-05-07T11:17:06;28.41;15.47
72202;SHT30;60105;54.956;73.412;2023-05-07T11:20:09;28.48;15.58
72202;SHT30;60105;54.956;73.412;2023-05-07T11:26:55;28.53;15.93
72202;SHT30;60105;54.956;73.412;2023-05-07T11:29:59;28.63;16.69
72202;SHT30;60105;54.956;73.412;2023-05-07T11:33:07;28.56;15.41
72202;SHT30;60105;54.956;73.412;2023-05-07T11:36:10;28.42;14.47
72202;SHT30;60105;54.956;73.412;2023-05-07T11:39:31;28.41;15.69
72202;SHT30;60105;54.956;73.412;2023-05-07T11:42:35;28.56;17.30
72202;SHT30;60105;54.956;73.412;2023-05-07T11:45:38;28.62;16.11
72202;SHT30;60105;54.956;73.412;2023-05-07T11:48:40;28.57;15.76
72202;SHT30;60105;54.956;73.412;2023-05-07T11:51:55;28.52;16.00
72202;SHT30;60105;54.956;73.412;2023-05-07T11:54:58;28.56;17.32
72202;SHT30;60105;54.956;73.412;2023-05-07T11:58:00;28.56;16.36
72202;SHT30;60105;54.956;73.412;2023-05-07T12:01:02;28.52;16.29
72202;SHT30;60105;54.956;73.412;2023-05-07T12:04:03;28.53;16.77
72202;SHT30;60105;54.956;73.412;2023-05-07T12:07:11;28.56;15.79
72202;SHT30;60105;54.956;73.412;2023-05-07T12:10:12;28.55;15.90
72202;SHT30;60105;54.956;73.412;2023-05-07T12:13:22;28.49;15.83
72202;SHT30;60105;54.956;73.412;2023-05-07T12:16:55;28.49;18.03
72202;SHT30;60105;54.956;73.412;2023-05-07T12:19:57;28.48;16.71
72202;SHT30;60105;54.956;73.412;2023-05-07T12:22:58;28.46;16.78
72202;SHT30;60105;54.956;73.412;2023-05-07T12:25:59;28.41;16.63
72202;SHT30;60105;54.956;73.412;2023-05-07T12:29:02;28.41;17.32
72202;SHT30;60105;54.956;73.412;2023-05-07T12:32:06;28.35;16.13
72202;SHT30;60105;54.956;73.412;2023-05-07T12:35:08;28.26;16.97
72202;SHT30;60105;54.956;73.412;2023-05-07T12:38:14;28.25;17.15
72202;SHT30;60105;54.956;73.412;2023-05-07T12:41:56;28.16;16.64
72202;SHT30;60105;54.956;73.412;2023-05-07T12:44:59;28.14;16.50
72202;SHT30;60105;54.956;73.412;2023-05-07T12:48:01;28.14;17.27
72202;SHT30;60105;54.956;73.412;2023-05-07T12:51:05;28.05;16.66
72202;SHT30;60105;54.956;73.412;2023-05-07T12:54:07;28.01;16.87
72202;SHT30;60105;54.956;73.412;2023-05-07T12:57:09;27.92;16.91
72202;SHT30;60105;54.956;73.412;2023-05-07T13:00:11;27.92;17.09
72202;SHT30;60105;54.956;73.412;2023-05-07T13:03:32;27.84;17.32
72202;SHT30;60105;54.956;73.412;2023-05-07T13:06:55;27.83;17.63
72202;SHT30;60105;54.956;73.412;2023-05-07T13:09:56;27.71;17.64
72202;SHT30;60105;54.956;73.412;2023-05-07T13:12:58;27.65;18.14
72202;SHT30;60105;54.956;73.412;2023-05-07T13:16:00;27.58;19.73
72202;SHT30;60105;54.956;73.412;2023-05-07T13:19:01;27.53;19.53
72202;SHT30;60105;54.956;73.412;2023-05-07T13:22:03;27.44;18.94
72202;SHT30;60105;54.956;73.412;2023-05-07T13:25:05;27.39;19.07
72202;SHT30;60105;54.956;73.412;2023-05-07T13:28:06;27.30;20.21
72202;SHT30;60105;54.956;73.412;2023-05-07T13:31:08;27.20;18.97
72202;SHT30;60105;54.956;73.412;2023-05-07T13:34:10;27.15;19.62
72202;SHT30;60105;54.956;73.412;2023-05-07T13:37:11;27.02;19.30
72202;SHT30;60105;54.956;73.412;2023-05-07T13:40:13;26.91;20.05
72202;SHT30;60105;54.956;73.412;2023-05-07T13:43:14;26.81;19.20
72202;SHT30;60105;54.956;73.412;2023-05-07T13:46:55;26.81;19.87
72202;SHT30;60105;54.956;73.412;2023-05-07T13:49:57;26.67;19.99
72202;SHT30;60105;54.956;73.412;2023-05-07T13:52:58;26.54;19.79
72202;SHT30;60105;54.956;73.412;2023-05-07T13:55:59;26.40;20.38
72202;SHT30;60105;54.956;73.412;2023-05-07T13:59:01;26.26;20.29
72202;SHT30;60105;54.956;73.412;2023-05-07T14:02:02;26.07;21.00
72202;SHT30;60105;54.956;73.412;2023-05-07T14:05:04;25.94;21.51
72202;SHT30;60105;54.956;73.412;2023-05-07T14:08:06;25.82;21.37
72202;SHT30;60105;54.956;73.412;2023-05-07T14:11:09;25.65;22.33
72202;SHT30;60105;54.956;73.412;2023-05-07T14:14:11;25.55;21.83
72202;SHT30;60105;54.956;73.412;2023-05-07T14:17:12;25.41;21.87
72202;SHT30;60105;54.956;73.412;2023-05-07T14:20:14;25.31;21.92
72202;SHT30;60105;54.956;73.412;2023-05-07T14:23:15;25.18;22.50
72202;SHT30;60105;54.956;73.412;2023-05-07T14:26:55;25.01;23.01
72202;SHT30;60105;54.956;73.412;2023-05-07T14:29:56;24.92;22.92
72202;SHT30;60105;54.956;73.412;2023-05-07T14:32:58;24.83;23.55
72202;SHT30;60105;54.956;73.412;2023-05-07T14:35:59;24.73;23.79
72202;SHT30;60105;54.956;73.412;2023-05-07T14:39:00;24.60;23.95
72202;SHT30;60105;54.956;73.412;2023-05-07T14:42:03;24.46;24.12
72202;SHT30;60105;54.956;73.412;2023-05-07T14:45:05;24.35;24.10
72202;SHT30;60105;54.956;73.412;2023-05-07T14:48:07;24.22;24.18
72202;SHT30;60105;54.956;73.412;2023-05-07T14:51:10;24.06;24.28
72202;SHT30;60105;54.956;73.412;2023-05-07T14:54:12;23.97;24.66
72202;SHT30;60105;54.956;73.412;2023-05-07T14:57:14;23.82;25.03
72202;SHT30;60105;54.956;73.412;2023-05-07T15:00:17;23.74;24.73
72202;SHT30;60105;54.956;73.412;2023-05-07T15:03:18;23.64;24.84
72202;SHT30;60105;54.956;73.412;2023-05-07T15:06:55;23.53;24.81
72202;SHT30;60105;54.956;73.412;2023-05-07T15:09:56;23.40;24.98
72202;SHT30;60105;54.956;73.412;2023-05-07T15:12:58;23.24;25.45
72202;SHT30;60105;54.956;73.412;2023-05-07T15:15:59;23.10;26.22
72202;SHT30;60105;54.956;73.412;2023-05-07T15:19:01;23.00;25.38
72202;SHT30;60105;54.956;73.412;2023-05-07T15:22:02;22.92;28.30
72202;SHT30;60105;54.956;73.412;2023-05-07T15:25:04;22.84;25.51
72202;SHT30;60105;54.956;73.412;2023-05-07T15:28:06;22.73;26.33
72202;SHT30;60105;54.956;73.412;2023-05-07T15:31:07;22.64;26.34
72202;SHT30;60105;54.956;73.412;2023-05-07T15:34:09;22.52;26.06
72202;SHT30;60105;54.956;73.412;2023-05-07T15:37:11;22.43;26.07
72202;SHT30;60105;54.956;73.412;2023-05-07T15:40:14;22.38;25.86
72202;SHT30;60105;54.956;73.412;2023-05-07T15:43:15;22.30;26.23
72202;SHT30;60105;54.956;73.412;2023-05-07T15:46:55;22.24;26.17
72202;SHT30;60105;54.956;73.412;2023-05-07T15:49:57;22.16;26.25
72202;SHT30;60105;54.956;73.412;2023-05-07T15:52:58;22.11;25.87
72202;SHT30;60105;54.956;73.412;2023-05-07T15:55:59;22.04;25.88
72202;SHT30;60105;54.956;73.412;2023-05-07T15:59:01;21.97;25.53
72202;SHT30;60105;54.956;73.412;2023-05-07T16:02:02;21.92;25.61
72202;SHT30;60105;54.956;73.412;2023-05-07T16:05:06;21.86;25.26
72202;SHT30;60105;54.956;73.412;2023-05-07T16:08:10;21.83;26.02
72202;SHT30;60105;54.956;73.412;2023-05-07T16:11:55;21.85;25.26
72202;SHT30;60105;54.956;73.412;2023-05-07T16:14:56;21.80;26.03
72202;SHT30;60105;54.956;73.412;2023-05-07T16:17:58;21.69;26.75
72202;SHT30;60105;54.956;73.412;2023-05-07T16:20:59;21.59;26.07
72202;SHT30;60105;54.956;73.412;2023-05-07T16:24:01;21.50;25.87
72202;SHT30;60105;54.956;73.412;2023-05-07T16:27:02;21.46;26.79
72202;SHT30;60105;54.956;73.412;2023-05-07T16:30:04;21.42;25.69
72202;SHT30;60105;54.956;73.412;2023-05-07T16:33:07;21.35;26.18
72202;SHT30;60105;54.956;73.412;2023-05-07T16:36:08;21.31;26.11
72202;SHT30;60105;54.956;73.412;2023-05-07T16:39:10;21.27;26.84
72202;SHT30;60105;54.956;73.412;2023-05-07T16:42:11;21.15;26.11
72202;SHT30;60105;54.956;73.412;2023-05-07T16:45:14;21.10;27.57
72202;SHT30;60105;54.956;73.412;2023-05-07T16:48:15;21.02;27.11
72202;SHT30;60105;54.956;73.412;2023-05-07T16:51:55;20.98;26.12
72202;SHT30;60105;54.956;73.412;2023-05-07T16:54:57;20.95;26.54
72202;SHT30;60105;54.956;73.412;2023-05-07T16:58:01;20.88;26.66
72202;SHT30;60105;54.956;73.412;2023-05-07T17:01:03;20.84;26.36
72202;SHT30;60105;54.956;73.412;2023-05-07T17:04:04;20.77;26.44
72202;SHT30;60105;54.956;73.412;2023-05-07T17:07:05;20.73;26.51
72202;SHT30;60105;54.956;73.412;2023-05-07T17:10:07;20.66;26.13
72202;SHT30;60105;54.956;73.412;2023-05-07T17:13:09;20.60;27.43
72202;SHT30;60105;54.956;73.412;2023-05-07T17:16:10;20.49;27.67
72202;SHT30;60105;54.956;73.412;2023-05-07T17:19:12;20.39;27.35
72202;SHT30;60105;54.956;73.412;2023-05-07T17:22:13;20.29;28.08
72202;SHT30;60105;54.956;73.412;2023-05-07T17:25:15;20.28;27.77
72202;SHT30;60105;54.956;73.412;2023-05-07T17:28:17;20.22;26.96
72202;SHT30;60105;54.956;73.412;2023-05-07T17:31:23;20.12;27.59
72202;SHT30;60105;54.956;73.412;2023-05-07T17:34:25;20.04;27.54
72202;SHT30;60105;54.956;73.412;2023-05-07T17:37:27;19.98;27.73
72202;SHT30;60105;54.956;73.412;2023-05-07T17:40:28;19.95;27.65
72202;SHT30;60105;54.956;73.412;2023-05-07T17:43:30;19.94;27.82
72202;SHT30;60105;54.956;73.412;2023-05-07T17:46:55;19.81;27.52
72202;SHT30;60105;54.956;73.412;2023-05-07T17:49:56;19.77;28.19
72202;SHT30;60105;54.956;73.412;2023-05-07T17:52:58;19.64;28.53
72202;SHT30;60105;54.956;73.412;2023-05-07T17:55:59;19.55;28.14
72202;SHT30;60105;54.956;73.412;2023-05-07T17:59:01;19.49;28.69
72202;SHT30;60105;54.956;73.412;2023-05-07T18:02:02;19.40;29.58
72202;SHT30;60105;54.956;73.412;2023-05-07T18:05:04;19.28;28.62
72202;SHT30;60105;54.956;73.412;2023-05-07T18:08:09;19.24;29.29
72202;SHT30;60105;54.956;73.412;2023-05-07T18:11:10;19.22;30.65
72202;SHT30;60105;54.956;73.412;2023-05-07T18:14:11;19.17;29.76
72202;SHT30;60105;54.956;73.412;2023-05-07T18:17:13;19.10;29.74
72202;SHT30;60105;54.956;73.412;2023-05-07T18:20:14;18.98;29.92
72202;SHT30;60105;54.956;73.412;2023-05-07T18:23:16;18.88;30.66
72202;SHT30;60105;54.956;73.412;2023-05-07T18:26:55;18.75;30.89
72202;SHT30;60105;54.956;73.412;2023-05-07T18:29:56;18.68;31.31
72202;SHT30;60105;54.956;73.412;2023-05-07T18:32:57;18.65;30.58
72202;SHT30;60105;54.956;73.412;2023-05-07T18:35:59;18.65;30.96
72202;SHT30;60105;54.956;73.412;2023-05-07T18:39:00;18.56;31.77
72202;SHT30;60105;54.956;73.412;2023-05-07T18:42:02;18.47;32.64
72202;SHT30;60105;54.956;73.412;2023-05-07T18:45:05;18.38;32.41
72202;SHT30;60105;54.956;73.412;2023-05-07T18:48:09;18.34;32.43
72202;SHT30;60105;54.956;73.412;2023-05-07T18:51:55;18.30;32.65
72202;SHT30;60105;54.956;73.412;2023-05-07T18:54:56;18.30;32.64
72202;SHT30;60105;54.956;73.412;2023-05-07T18:57:58;18.24;33.38
72202;SHT30;60105;54.956;73.412;2023-05-07T19:01:00;18.18;34.24
72202;SHT30;60105;54.956;73.412;2023-05-07T19:04:02;18.13;34.04
72202;SHT30;60105;54.956;73.412;2023-05-07T19:07:03;18.07;34.27
72202;SHT30;60105;54.956;73.412;2023-05-07T19:10:05;18.07;34.43
72202;SHT30;60105;54.956;73.412;2023-05-07T19:13:07;18.01;34.26
72202;SHT30;60105;54.956;73.412;2023-05-07T19:16:09;17.96;34.71
72202;SHT30;60105;54.956;73.412;2023-05-07T19:19:12;17.91;35.20
72202;SHT30;60105;54.956;73.412;2023-05-07T19:22:16;17.86;34.80
72202;SHT30;60105;54.956;73.412;2023-05-07T19:25:17;17.82;34.94
72202;SHT30;60105;54.956;73.412;2023-05-07T19:28:19;17.73;35.29
72202;SHT30;60105;54.956;73.412;2023-05-07T19:31:24;17.69;35.12
72202;SHT30;60105;54.956;73.412;2023-05-07T19:34:28;17.63;35.43
72202;SHT30;60105;54.956;73.412;2023-05-07T19:37:30;17.61;35.35